Terminal Aerodrome Forecast
Issued by NWS Pittsburgh, PA

Current Version | Previous Version | Graphics & Text | Print | Product List | Glossary On
Versions: 1 2 3 4 5 6 7 8 9 10 11 12 13 14 15 16 17 18 19 20 21 22 23 24 25 26 27 28 29 30 31 32 33 34 35
000
FTUS41 KPBZ 010000 AAA
TAFPIT
TAF AMD
KPIT 010013Z 0100/0206 18005KT P6SM -SHRA SCT017 BKN040 OVC070
     FM010100 21007KT 6SM BR VCSH SCT005 SCT023 BKN120
     FM010400 20005KT 4SM BR BKN007
     FM011200 20004KT 5SM BR BKN010
     FM011500 23005KT P6SM BKN025
     FM011700 23008KT P6SM BKN035=

USA.gov is the U.S. government's official web portal to all federal, state and local government web resources and services.